Terminal Aerodrome Forecast
Issued by NWS Wilmington, OH

Current Version | Previous Version | Text Only | Print | Product List | Glossary Off
Versions: 1 2 3 4 5 6 7 8 9 10 11 12 13 14 15 16 17 18 19

000
FTUS41 KILN 271359 AAB
TAFILN
TAF AMD
KILN 271359Z 2714/2812 20005KT P6SM FEW040 BKN250
     FM272200 17006KT P6SM VCTS SCT050CB BKN120
     FM280100 19006KT 5SM -SHRA BR BKN050 OVC100
     FM280600 VRB04KT 3SM BR VCSH BKN015 OVC035
     FM281100 30004KT 2SM BR OVC008=

USA.gov is the U.S. government's official web portal to all federal, state and local government web resources and services.